sensor_id;sensor_type;location;lat;lon;timestamp;pressure;altitude;pressure_sealevel;temperature;humidity
32747;BME280;19118;50.860;13.662;2022-08-03T00:01:01;97103.72;;;17.27;83.67
32747;BME280;19118;50.860;13.662;2022-08-03T00:06:01;97093.44;;;17.47;83.37
32747;BME280;19118;50.860;13.662;2022-08-03T00:11:02;97095.69;;;17.55;83.53
32747;BME280;19118;50.860;13.662;2022-08-03T00:16:02;97093.44;;;17.47;84.17
32747;BME280;19118;50.860;13.662;2022-08-03T00:21:03;97105.81;;;17.25;85.05
32747;BME280;19118;50.860;13.662;2022-08-03T00:26:03;97090.44;;;17.32;85.02
32747;BME280;19118;50.860;13.662;2022-08-03T00:31:04;97090.31;;;17.38;84.32
32747;BME280;19118;50.860;13.662;2022-08-03T00:36:04;97088.94;;;17.36;84.66
32747;BME280;19118;50.860;13.662;2022-08-03T00:41:04;97084.94;;;17.22;85.16
32747;BME280;19118;50.860;13.662;2022-08-03T00:46:05;97075.50;;;17.19;85.43
32747;BME280;19118;50.860;13.662;2022-08-03T00:51:05;97082.13;;;17.16;85.21
32747;BME280;19118;50.860;13.662;2022-08-03T00:56:06;97084.72;;;17.11;84.81
32747;BME280;19118;50.860;13.662;2022-08-03T01:01:06;97085.78;;;17.10;85.19
32747;BME280;19118;50.860;13.662;2022-08-03T01:06:18;97087.06;;;16.96;85.83
32747;BME280;19118;50.860;13.662;2022-08-03T01:11:37;97090.09;;;17.00;85.42
32747;BME280;19118;50.860;13.662;2022-08-03T01:16:43;97082.69;;;16.90;85.92
32747;BME280;19118;50.860;13.662;2022-08-03T01:27:06;97086.03;;;16.85;86.09
32747;BME280;19118;50.860;13.662;2022-08-03T01:32:11;97078.03;;;16.74;86.62
32747;BME280;19118;50.860;13.662;2022-08-03T01:37:15;97077.34;;;16.78;86.40
32747;BME280;19118;50.860;13.662;2022-08-03T01:42:22;97084.66;;;16.71;86.97
32747;BME280;19118;50.860;13.662;2022-08-03T01:47:24;97078.50;;;16.71;86.54
32747;BME280;19118;50.860;13.662;2022-08-03T01:52:25;97072.59;;;16.57;87.35
32747;BME280;19118;50.860;13.662;2022-08-03T01:57:27;97064.00;;;16.55;87.13
32747;BME280;19118;50.860;13.662;2022-08-03T02:02:30;97075.94;;;16.52;87.45
32747;BME280;19118;50.860;13.662;2022-08-03T02:07:33;97068.31;;;16.44;87.58
32747;BME280;19118;50.860;13.662;2022-08-03T02:12:34;97069.44;;;16.48;87.12
32747;BME280;19118;50.860;13.662;2022-08-03T02:17:37;97066.69;;;16.43;87.67
32747;BME280;19118;50.860;13.662;2022-08-03T02:22:42;97069.94;;;16.45;87.64
32747;BME280;19118;50.860;13.662;2022-08-03T02:27:55;97077.22;;;16.38;87.66
32747;BME280;19118;50.860;13.662;2022-08-03T02:32:58;97066.56;;;16.38;87.66
32747;BME280;19118;50.860;13.662;2022-08-03T02:38:02;97058.78;;;16.25;88.54
32747;BME280;19118;50.860;13.662;2022-08-03T02:43:06;97061.78;;;16.28;88.14
32747;BME280;19118;50.860;13.662;2022-08-03T02:48:09;97062.03;;;16.27;88.37
32747;BME280;19118;50.860;13.662;2022-08-03T02:53:11;97072.81;;;16.20;88.95
32747;BME280;19118;50.860;13.662;2022-08-03T02:58:13;97053.91;;;16.22;88.42
32747;BME280;19118;50.860;13.662;2022-08-03T03:03:16;97065.41;;;16.22;88.43
32747;BME280;19118;50.860;13.662;2022-08-03T03:08:18;97063.41;;;16.18;88.79
32747;BME280;19118;50.860;13.662;2022-08-03T03:13:20;97062.16;;;16.20;88.77
32747;BME280;19118;50.860;13.662;2022-08-03T03:18:22;97059.25;;;16.22;88.83
32747;BME280;19118;50.860;13.662;2022-08-03T03:23:25;97066.69;;;16.20;88.94
32747;BME280;19118;50.860;13.662;2022-08-03T03:28:26;97070.84;;;16.16;89.21
32747;BME280;19118;50.860;13.662;2022-08-03T03:33:26;97076.06;;;16.22;89.21
32747;BME280;19118;50.860;13.662;2022-08-03T03:38:27;97068.53;;;16.31;89.02
32747;BME280;19118;50.860;13.662;2022-08-03T03:43:27;97062.84;;;16.27;89.70
32747;BME280;19118;50.860;13.662;2022-08-03T03:48:28;97062.25;;;16.37;89.58
32747;BME280;19118;50.860;13.662;2022-08-03T03:53:28;97063.19;;;16.54;89.09
32747;BME280;19118;50.860;13.662;2022-08-03T03:58:30;97064.59;;;16.69;88.81
32747;BME280;19118;50.860;13.662;2022-08-03T04:03:31;97068.06;;;16.81;88.79
32747;BME280;19118;50.860;13.662;2022-08-03T04:08:31;97060.72;;;17.00;87.90
32747;BME280;19118;50.860;13.662;2022-08-03T04:14:18;97063.44;;;17.16;87.28
32747;BME280;19118;50.860;13.662;2022-08-03T04:19:44;97065.00;;;17.29;87.19
32747;BME280;19118;50.860;13.662;2022-08-03T04:25:00;97070.88;;;17.43;87.39
32747;BME280;19118;50.860;13.662;2022-08-03T04:30:03;97077.34;;;17.59;87.44
32747;BME280;19118;50.860;13.662;2022-08-03T04:35:05;97070.59;;;17.85;87.31
32747;BME280;19118;50.860;13.662;2022-08-03T04:40:08;97063.28;;;17.97;86.78
32747;BME280;19118;50.860;13.662;2022-08-03T04:45:15;97070.75;;;18.28;86.07
32747;BME280;19118;50.860;13.662;2022-08-03T04:50:15;97077.63;;;18.58;85.34
32747;BME280;19118;50.860;13.662;2022-08-03T04:55:26;97078.31;;;18.87;84.33
32747;BME280;19118;50.860;13.662;2022-08-03T05:00:26;97093.66;;;19.13;83.60
32747;BME280;19118;50.860;13.662;2022-08-03T05:05:27;97104.44;;;19.40;82.61
32747;BME280;19118;50.860;13.662;2022-08-03T05:10:27;97100.19;;;19.66;82.07
32747;BME280;19118;50.860;13.662;2022-08-03T05:15:27;97097.53;;;19.98;80.78
32747;BME280;19118;50.860;13.662;2022-08-03T05:20:28;97097.28;;;20.32;80.01
32747;BME280;19118;50.860;13.662;2022-08-03T05:25:29;97096.56;;;20.79;79.18
32747;BME280;19118;50.860;13.662;2022-08-03T05:30:29;97095.75;;;28.87;57.17
32747;BME280;19118;50.860;13.662;2022-08-03T05:35:31;97110.59;;;33.16;48.16
32747;BME280;19118;50.860;13.662;2022-08-03T05:40:31;97125.25;;;34.62;45.76
32747;BME280;19118;50.860;13.662;2022-08-03T05:45:32;97123.75;;;35.55;44.00
32747;BME280;19118;50.860;13.662;2022-08-03T05:50:32;97124.13;;;35.38;44.73
32747;BME280;19118;50.860;13.662;2022-08-03T05:55:32;97113.03;;;35.03;43.51
32747;BME280;19118;50.860;13.662;2022-08-03T06:00:33;97115.50;;;34.36;44.50
32747;BME280;19118;50.860;13.662;2022-08-03T06:05:33;97099.44;;;33.58;45.50
32747;BME280;19118;50.860;13.662;2022-08-03T06:10:36;97109.56;;;32.63;46.57
32747;BME280;19118;50.860;13.662;2022-08-03T06:15:37;97099.19;;;30.07;49.07
32747;BME280;19118;50.860;13.662;2022-08-03T06:20:37;97092.84;;;26.89;57.03
32747;BME280;19118;50.860;13.662;2022-08-03T06:25:37;97098.94;;;25.83;58.38
32747;BME280;19118;50.860;13.662;2022-08-03T06:30:39;97098.34;;;25.87;58.49
32747;BME280;19118;50.860;13.662;2022-08-03T06:35:39;97094.53;;;25.88;58.05
32747;BME280;19118;50.860;13.662;2022-08-03T06:40:39;97086.16;;;26.03;57.59
32747;BME280;19118;50.860;13.662;2022-08-03T06:45:40;97091.66;;;26.17;58.20
32747;BME280;19118;50.860;13.662;2022-08-03T06:50:41;97093.53;;;26.16;58.11
32747;BME280;19118;50.860;13.662;2022-08-03T06:55:43;97094.50;;;26.58;57.00
32747;BME280;19118;50.860;13.662;2022-08-03T07:00:43;97094.47;;;26.90;56.69
32747;BME280;19118;50.860;13.662;2022-08-03T07:05:44;97091.41;;;27.11;56.18
32747;BME280;19118;50.860;13.662;2022-08-03T07:10:47;97098.41;;;27.25;55.92
32747;BME280;19118;50.860;13.662;2022-08-03T07:15:47;97101.31;;;27.70;55.49
32747;BME280;19118;50.860;13.662;2022-08-03T07:20:47;97094.78;;;27.71;54.82
32747;BME280;19118;50.860;13.662;2022-08-03T07:25:48;97100.81;;;27.68;54.57
32747;BME280;19118;50.860;13.662;2022-08-03T07:30:48;97100.63;;;28.01;53.78
32747;BME280;19118;50.860;13.662;2022-08-03T07:35:48;97097.91;;;27.65;54.66
32747;BME280;19118;50.860;13.662;2022-08-03T07:40:49;97100.75;;;28.18;54.31
32747;BME280;19118;50.860;13.662;2022-08-03T07:45:49;97100.44;;;28.20;53.34
32747;BME280;19118;50.860;13.662;2022-08-03T07:50:49;97106.03;;;28.59;52.40
32747;BME280;19118;50.860;13.662;2022-08-03T07:55:50;97103.00;;;28.61;53.12
32747;BME280;19118;50.860;13.662;2022-08-03T08:00:51;97103.56;;;29.03;51.60
32747;BME280;19118;50.860;13.662;2022-08-03T08:05:52;97093.97;;;28.52;50.97
32747;BME280;19118;50.860;13.662;2022-08-03T08:10:52;97095.66;;;28.39;51.36
32747;BME280;19118;50.860;13.662;2022-08-03T08:15:53;97090.19;;;29.32;50.67
32747;BME280;19118;50.860;13.662;2022-08-03T08:20:53;97089.41;;;29.32;49.79
32747;BME280;19118;50.860;13.662;2022-08-03T08:25:54;97087.25;;;29.51;50.27
32747;BME280;19118;50.860;13.662;2022-08-03T08:30:55;97088.16;;;29.38;50.06
32747;BME280;19118;50.860;13.662;2022-08-03T08:35:55;97090.81;;;29.95;48.65
32747;BME280;19118;50.860;13.662;2022-08-03T08:40:55;97083.13;;;29.79;48.78
32747;BME280;19118;50.860;13.662;2022-08-03T08:45:57;97087.13;;;29.99;44.75
32747;BME280;19118;50.860;13.662;2022-08-03T08:51:00;97076.19;;;30.42;44.39
32747;BME280;19118;50.860;13.662;2022-08-03T08:56:01;97078.28;;;30.46;45.14
32747;BME280;19118;50.860;13.662;2022-08-03T09:01:02;97074.06;;;31.12;43.72
32747;BME280;19118;50.860;13.662;2022-08-03T09:06:03;97080.59;;;30.90;44.62
32747;BME280;19118;50.860;13.662;2022-08-03T09:11:03;97085.44;;;31.32;43.23
32747;BME280;19118;50.860;13.662;2022-08-03T09:21:22;97071.44;;;31.33;43.83
32747;BME280;19118;50.860;13.662;2022-08-03T09:26:26;97072.19;;;31.42;42.80
32747;BME280;19118;50.860;13.662;2022-08-03T09:31:38;97074.78;;;31.89;41.13
32747;BME280;19118;50.860;13.662;2022-08-03T09:36:42;97072.47;;;31.49;42.50
32747;BME280;19118;50.860;13.662;2022-08-03T09:41:45;97073.19;;;31.88;40.26
32747;BME280;19118;50.860;13.662;2022-08-03T09:46:51;97077.47;;;31.68;42.05
32747;BME280;19118;50.860;13.662;2022-08-03T09:51:52;97084.72;;;31.94;40.20
32747;BME280;19118;50.860;13.662;2022-08-03T09:56:53;97075.84;;;31.76;40.51
32747;BME280;19118;50.860;13.662;2022-08-03T10:01:55;97069.03;;;31.82;39.90
32747;BME280;19118;50.860;13.662;2022-08-03T10:07:03;97069.50;;;32.05;41.05
32747;BME280;19118;50.860;13.662;2022-08-03T10:12:11;97058.88;;;32.57;39.70
32747;BME280;19118;50.860;13.662;2022-08-03T10:17:12;97066.38;;;32.93;38.72
32747;BME280;19118;50.860;13.662;2022-08-03T10:27:18;97062.63;;;32.20;40.68
32747;BME280;19118;50.860;13.662;2022-08-03T10:32:30;97050.75;;;31.74;40.29
32747;BME280;19118;50.860;13.662;2022-08-03T10:37:43;97044.78;;;32.34;39.96
32747;BME280;19118;50.860;13.662;2022-08-03T10:42:45;97056.28;;;32.73;39.87
32747;BME280;19118;50.860;13.662;2022-08-03T10:47:50;97051.59;;;32.28;38.95
32747;BME280;19118;50.860;13.662;2022-08-03T10:52:56;97050.47;;;32.75;38.88
32747;BME280;19118;50.860;13.662;2022-08-03T10:57:57;97050.94;;;32.77;38.45
32747;BME280;19118;50.860;13.662;2022-08-03T11:03:07;97038.25;;;31.43;40.26
32747;BME280;19118;50.860;13.662;2022-08-03T11:08:17;97044.38;;;32.57;37.68
32747;BME280;19118;50.860;13.662;2022-08-03T11:13:20;97036.13;;;32.90;37.17
32747;BME280;19118;50.860;13.662;2022-08-03T11:18:21;97032.00;;;32.84;36.90
32747;BME280;19118;50.860;13.662;2022-08-03T11:28:43;97031.34;;;33.11;35.14
32747;BME280;19118;50.860;13.662;2022-08-03T11:39:12;97021.44;;;33.71;35.46
32747;BME280;19118;50.860;13.662;2022-08-03T11:44:39;97034.13;;;33.64;35.41
32747;BME280;19118;50.860;13.662;2022-08-03T11:49:40;97025.59;;;33.65;35.51
32747;BME280;19118;50.860;13.662;2022-08-03T11:54:41;97031.34;;;33.11;35.84
32747;BME280;19118;50.860;13.662;2022-08-03T11:59:42;97022.09;;;33.93;35.85
32747;BME280;19118;50.860;13.662;2022-08-03T12:04:56;97019.66;;;33.26;35.73
32747;BME280;19118;50.860;13.662;2022-08-03T12:15:07;97000.03;;;32.63;36.35
32747;BME280;19118;50.860;13.662;2022-08-03T12:20:09;97003.44;;;33.86;34.90
32747;BME280;19118;50.860;13.662;2022-08-03T12:25:24;97001.66;;;33.01;36.40
32747;BME280;19118;50.860;13.662;2022-08-03T12:30:25;96995.09;;;33.54;35.67
32747;BME280;19118;50.860;13.662;2022-08-03T12:35:26;96981.31;;;34.07;35.45
32747;BME280;19118;50.860;13.662;2022-08-03T12:40:27;96992.41;;;34.10;34.45
32747;BME280;19118;50.860;13.662;2022-08-03T12:45:28;96989.94;;;34.21;35.54
32747;BME280;19118;50.860;13.662;2022-08-03T12:50:32;96983.16;;;34.03;35.62
32747;BME280;19118;50.860;13.662;2022-08-03T12:55:34;96966.25;;;34.01;35.77
32747;BME280;19118;50.860;13.662;2022-08-03T13:00:35;96979.88;;;33.85;37.15
32747;BME280;19118;50.860;13.662;2022-08-03T13:05:45;96974.00;;;34.11;36.32
32747;BME280;19118;50.860;13.662;2022-08-03T13:10:46;96977.41;;;34.08;36.95
32747;BME280;19118;50.860;13.662;2022-08-03T13:15:46;96969.25;;;34.39;36.61
32747;BME280;19118;50.860;13.662;2022-08-03T13:20:46;96973.50;;;34.37;37.34
32747;BME280;19118;50.860;13.662;2022-08-03T13:25:47;96976.81;;;34.58;36.60
32747;BME280;19118;50.860;13.662;2022-08-03T13:30:47;96971.19;;;33.95;37.14
32747;BME280;19118;50.860;13.662;2022-08-03T13:35:47;96978.84;;;32.97;37.77
32747;BME280;19118;50.860;13.662;2022-08-03T13:40:48;96966.53;;;34.55;36.89
32747;BME280;19118;50.860;13.662;2022-08-03T13:45:50;96956.56;;;34.35;36.26
32747;BME280;19118;50.860;13.662;2022-08-03T13:50:50;96961.72;;;34.36;37.75
32747;BME280;19118;50.860;13.662;2022-08-03T13:55:50;96960.50;;;34.06;37.86
32747;BME280;19118;50.860;13.662;2022-08-03T14:00:51;96952.91;;;34.15;37.87
32747;BME280;19118;50.860;13.662;2022-08-03T14:05:51;96952.44;;;34.57;37.83
32747;BME280;19118;50.860;13.662;2022-08-03T14:10:51;96941.31;;;35.71;36.22
32747;BME280;19118;50.860;13.662;2022-08-03T14:15:52;96941.59;;;34.95;37.02
32747;BME280;19118;50.860;13.662;2022-08-03T14:20:52;96940.69;;;35.42;36.84
32747;BME280;19118;50.860;13.662;2022-08-03T14:25:52;96932.19;;;35.86;36.93
32747;BME280;19118;50.860;13.662;2022-08-03T14:30:54;96929.22;;;33.95;38.52
32747;BME280;19118;50.860;13.662;2022-08-03T14:35:55;96929.06;;;35.33;37.01
32747;BME280;19118;50.860;13.662;2022-08-03T14:40:55;96940.88;;;35.69;36.65
32747;BME280;19118;50.860;13.662;2022-08-03T14:45:55;96927.75;;;35.08;37.74
32747;BME280;19118;50.860;13.662;2022-08-03T14:50:56;96923.84;;;35.82;36.70
32747;BME280;19118;50.860;13.662;2022-08-03T14:55:56;96917.41;;;36.86;35.68
32747;BME280;19118;50.860;13.662;2022-08-03T15:00:57;96920.94;;;36.37;35.70
32747;BME280;19118;50.860;13.662;2022-08-03T15:05:57;96913.13;;;36.88;35.05
32747;BME280;19118;50.860;13.662;2022-08-03T15:10:57;96908.34;;;36.36;35.34
32747;BME280;19118;50.860;13.662;2022-08-03T15:15:58;96910.91;;;36.48;35.79
32747;BME280;19118;50.860;13.662;2022-08-03T15:20:58;96905.25;;;36.41;35.89
32747;BME280;19118;50.860;13.662;2022-08-03T15:25:58;96902.53;;;36.67;35.63
32747;BME280;19118;50.860;13.662;2022-08-03T15:30:59;96904.53;;;36.44;35.42
32747;BME280;19118;50.860;13.662;2022-08-03T15:36:00;96904.53;;;36.44;35.55
32747;BME280;19118;50.860;13.662;2022-08-03T15:41:00;96895.53;;;36.73;35.60
32747;BME280;19118;50.860;13.662;2022-08-03T15:46:00;96896.91;;;36.60;36.30
32747;BME280;19118;50.860;13.662;2022-08-03T15:51:01;96891.53;;;35.79;36.60
32747;BME280;19118;50.860;13.662;2022-08-03T15:56:02;96882.47;;;35.79;36.88
32747;BME280;19118;50.860;13.662;2022-08-03T16:01:03;96885.22;;;35.98;36.23
32747;BME280;19118;50.860;13.662;2022-08-03T16:06:05;96876.97;;;35.21;37.51
32747;BME280;19118;50.860;13.662;2022-08-03T16:11:06;96880.50;;;35.37;37.02
32747;BME280;19118;50.860;13.662;2022-08-03T16:16:06;96873.28;;;35.91;36.64
32747;BME280;19118;50.860;13.662;2022-08-03T16:21:07;96868.28;;;35.77;36.47
32747;BME280;19118;50.860;13.662;2022-08-03T16:26:07;96871.03;;;36.68;35.54
32747;BME280;19118;50.860;13.662;2022-08-03T16:31:08;96860.91;;;37.02;34.98
32747;BME280;19118;50.860;13.662;2022-08-03T16:36:08;96870.00;;;36.77;35.32
32747;BME280;19118;50.860;13.662;2022-08-03T16:41:08;96872.50;;;35.71;36.13
32747;BME280;19118;50.860;13.662;2022-08-03T16:46:09;96871.47;;;34.86;36.76
32747;BME280;19118;50.860;13.662;2022-08-03T16:51:09;96867.72;;;35.29;36.75
32747;BME280;19118;50.860;13.662;2022-08-03T16:56:09;96876.09;;;35.17;37.35
32747;BME280;19118;50.860;13.662;2022-08-03T17:01:11;96873.13;;;34.39;39.68
32747;BME280;19118;50.860;13.662;2022-08-03T17:06:12;96877.53;;;33.41;42.12
32747;BME280;19118;50.860;13.662;2022-08-03T17:11:12;96880.41;;;32.80;43.09
32747;BME280;19118;50.860;13.662;2022-08-03T17:16:13;96872.88;;;34.44;40.79
32747;BME280;19118;50.860;13.662;2022-08-03T17:21:14;96881.34;;;35.41;39.96
32747;BME280;19118;50.860;13.662;2022-08-03T17:26:18;96886.94;;;35.10;40.77
32747;BME280;19118;50.860;13.662;2022-08-03T17:31:18;96886.31;;;34.34;41.95
32747;BME280;19118;50.860;13.662;2022-08-03T17:36:19;96883.25;;;33.08;44.64
32747;BME280;19118;50.860;13.662;2022-08-03T17:41:22;96890.44;;;33.00;44.49
32747;BME280;19118;50.860;13.662;2022-08-03T17:46:23;96891.38;;;32.92;44.09
32747;BME280;19118;50.860;13.662;2022-08-03T17:51:32;96899.38;;;33.37;43.40
32747;BME280;19118;50.860;13.662;2022-08-03T18:01:47;96895.56;;;32.28;43.52
32747;BME280;19118;50.860;13.662;2022-08-03T18:07:09;96897.03;;;31.80;44.72
32747;BME280;19118;50.860;13.662;2022-08-03T18:12:12;96898.34;;;30.99;45.74
32747;BME280;19118;50.860;13.662;2022-08-03T18:17:21;96898.97;;;30.76;46.74
32747;BME280;19118;50.860;13.662;2022-08-03T18:22:26;96904.81;;;30.57;46.46
32747;BME280;19118;50.860;13.662;2022-08-03T18:27:28;96911.44;;;30.09;47.76
32747;BME280;19118;50.860;13.662;2022-08-03T18:32:30;96921.41;;;29.88;48.71
32747;BME280;19118;50.860;13.662;2022-08-03T18:37:31;96921.63;;;29.48;49.54
32747;BME280;19118;50.860;13.662;2022-08-03T18:42:32;96925.13;;;29.31;49.57
32747;BME280;19118;50.860;13.662;2022-08-03T18:47:42;96932.13;;;28.97;50.83
32747;BME280;19118;50.860;13.662;2022-08-03T19:03:13;96940.78;;;27.89;52.93
32747;BME280;19118;50.860;13.662;2022-08-03T19:08:25;96936.38;;;27.57;54.00
32747;BME280;19118;50.860;13.662;2022-08-03T19:13:37;96939.22;;;27.30;54.54
32747;BME280;19118;50.860;13.662;2022-08-03T19:18:45;96939.53;;;27.01;55.03
32747;BME280;19118;50.860;13.662;2022-08-03T19:23:47;96931.03;;;26.66;56.37
32747;BME280;19118;50.860;13.662;2022-08-03T19:28:49;96937.84;;;26.50;56.72
32747;BME280;19118;50.860;13.662;2022-08-03T19:33:53;96932.22;;;26.32;57.38
32747;BME280;19118;50.860;13.662;2022-08-03T19:38:55;96944.00;;;25.95;57.45
32747;BME280;19118;50.860;13.662;2022-08-03T19:43:58;96945.75;;;25.72;57.52
32747;BME280;19118;50.860;13.662;2022-08-03T19:49:05;96945.09;;;25.43;57.21
32747;BME280;19118;50.860;13.662;2022-08-03T19:54:10;96943.28;;;25.19;57.73
32747;BME280;19118;50.860;13.662;2022-08-03T19:59:13;96938.69;;;24.96;60.00
32747;BME280;19118;50.860;13.662;2022-08-03T20:04:15;96943.34;;;24.72;59.13
32747;BME280;19118;50.860;13.662;2022-08-03T20:09:16;96940.81;;;24.56;59.58
32747;BME280;19118;50.860;13.662;2022-08-03T20:14:19;96934.38;;;24.52;60.76
32747;BME280;19118;50.860;13.662;2022-08-03T20:19:20;96937.28;;;24.37;60.80
32747;BME280;19118;50.860;13.662;2022-08-03T20:24:32;96934.69;;;24.22;61.53
32747;BME280;19118;50.860;13.662;2022-08-03T20:29:41;96939.94;;;24.13;61.86
32747;BME280;19118;50.860;13.662;2022-08-03T20:34:45;96938.78;;;23.90;63.23
32747;BME280;19118;50.860;13.662;2022-08-03T20:39:46;96933.50;;;23.75;63.19
32747;BME280;19118;50.860;13.662;2022-08-03T20:44:46;96929.84;;;23.56;64.72
32747;BME280;19118;50.860;13.662;2022-08-03T20:49:47;96931.50;;;23.57;64.28
32747;BME280;19118;50.860;13.662;2022-08-03T20:54:48;96932.22;;;23.33;65.24
32747;BME280;19118;50.860;13.662;2022-08-03T20:59:48;96925.66;;;23.44;64.34
32747;BME280;19118;50.860;13.662;2022-08-03T21:04:49;96927.25;;;23.45;64.90
32747;BME280;19118;50.860;13.662;2022-08-03T21:09:51;96939.16;;;23.44;65.17
32747;BME280;19118;50.860;13.662;2022-08-03T21:14:58;96928.28;;;23.49;64.95
32747;BME280;19118;50.860;13.662;2022-08-03T21:20:03;96930.69;;;23.56;65.08
32747;BME280;19118;50.860;13.662;2022-08-03T21:25:06;96935.69;;;23.73;64.19
32747;BME280;19118;50.860;13.662;2022-08-03T21:30:10;96933.41;;;23.90;63.62
32747;BME280;19118;50.860;13.662;2022-08-03T21:35:11;96937.59;;;24.01;63.29
32747;BME280;19118;50.860;13.662;2022-08-03T21:40:14;96932.88;;;24.12;62.93
32747;BME280;19118;50.860;13.662;2022-08-03T21:45:15;96929.75;;;24.29;61.56
32747;BME280;19118;50.860;13.662;2022-08-03T21:50:15;96938.41;;;24.31;61.91
32747;BME280;19118;50.860;13.662;2022-08-03T21:55:17;96938.47;;;24.21;62.07
32747;BME280;19118;50.860;13.662;2022-08-03T22:00:19;96939.78;;;24.23;61.21
32747;BME280;19118;50.860;13.662;2022-08-03T22:05:21;96931.84;;;24.08;62.21
32747;BME280;19118;50.860;13.662;2022-08-03T22:10:22;96929.22;;;24.03;62.30
32747;BME280;19118;50.860;13.662;2022-08-03T22:15:23;96926.63;;;24.17;60.96
32747;BME280;19118;50.860;13.662;2022-08-03T22:20:24;96927.34;;;24.27;61.04
32747;BME280;19118;50.860;13.662;2022-08-03T22:25:30;96934.34;;;24.28;60.79
32747;BME280;19118;50.860;13.662;2022-08-03T22:30:32;96932.22;;;24.25;60.69
32747;BME280;19118;50.860;13.662;2022-08-03T22:35:38;96934.69;;;24.22;60.27
32747;BME280;19118;50.860;13.662;2022-08-03T22:40:39;96937.81;;;24.34;59.75
32747;BME280;19118;50.860;13.662;2022-08-03T22:45:42;96936.72;;;24.35;59.17
32747;BME280;19118;50.860;13.662;2022-08-03T22:50:44;96933.13;;;24.16;60.15
32747;BME280;19118;50.860;13.662;2022-08-03T22:55:49;96933.47;;;24.09;59.79
32747;BME280;19118;50.860;13.662;2022-08-03T23:05:53;96929.38;;;24.11;59.55
32747;BME280;19118;50.860;13.662;2022-08-03T23:11:03;96928.13;;;24.04;59.96
32747;BME280;19118;50.860;13.662;2022-08-03T23:16:05;96936.69;;;23.82;60.48
32747;BME280;19118;50.860;13.662;2022-08-03T23:21:06;96938.53;;;23.87;59.73
32747;BME280;19118;50.860;13.662;2022-08-03T23:26:07;96943.13;;;23.86;59.43
32747;BME280;19118;50.860;13.662;2022-08-03T23:31:08;96938.06;;;23.79;60.15
32747;BME280;19118;50.860;13.662;2022-08-03T23:36:12;96934.09;;;23.67;59.76
32747;BME280;19118;50.860;13.662;2022-08-03T23:41:17;96942.19;;;23.72;59.55
32747;BME280;19118;50.860;13.662;2022-08-03T23:46:20;96933.09;;;23.58;60.40
32747;BME280;19118;50.860;13.662;2022-08-03T23:51:30;96935.31;;;23.50;60.09
32747;BME280;19118;50.860;13.662;2022-08-03T23:56:47;96937.44;;;23.59;60.19
